Time;durP1;ratioP1;P1;durP2;ratioP2;P2;SDS_P1;SDS_P2;PMS_P1;PMS_P2;Temp;Humidity;BMP_temperature;BMP_pressure;BME280_temperature;BME280_humidity;BME280_pressure;Samples;Min_cycle;Max_cycle;Signal;HPM_P1;HPM_P2
2021/10/09 00:04:30;;;;;;;62.80;39.75;;;;;;;8.45;67.16;101113.84;10387449;28;20045;-64
2021/10/09 00:09:32;;;;;;;58.25;40.08;;;;;;;8.44;67.10;101106.94;10386265;28;20160;-63
2021/10/09 00:14:34;;;;;;;56.03;38.53;;;;;;;8.41;67.08;101104.41;10386510;28;20145;-64
2021/10/09 00:19:35;;;;;;;54.97;38.28;;;;;;;8.39;67.14;101108.84;10385650;28;20049;-63
2021/10/09 00:24:37;;;;;;;59.45;39.92;;;;;;;8.36;66.95;101111.56;10386488;28;20049;-63
2021/10/09 00:29:39;;;;;;;59.60;39.22;;;;;;;8.34;66.88;101113.34;10384868;28;20045;-63
2021/10/09 00:34:41;;;;;;;104.38;44.58;;;;;;;8.18;67.28;101112.13;10385959;28;20136;-63
2021/10/09 00:39:42;;;;;;;50.20;35.65;;;;;;;8.05;67.94;101106.41;10384581;28;20141;-63
2021/10/09 00:44:44;;;;;;;94.25;45.83;;;;;;;7.95;67.56;101105.84;10384815;28;20049;-63
2021/10/09 00:49:46;;;;;;;89.63;46.95;;;;;;;7.84;67.94;101102.69;10381015;28;20323;-64
2021/10/09 00:54:48;;;;;;;81.90;45.35;;;;;;;7.93;68.23;101104.19;10386013;28;20056;-64
2021/10/09 00:59:51;;;;;;;68.97;43.13;;;;;;;8.02;67.95;101089.13;10385632;28;20041;-63
2021/10/09 01:04:55;;;;;;;70.88;43.60;;;;;;;8.02;67.88;101089.13;10386104;28;20136;-64
2021/10/09 01:09:56;;;;;;;71.93;42.63;;;;;;;7.99;67.77;101094.44;10400167;28;20421;-64
2021/10/09 01:14:58;;;;;;;91.70;47.83;;;;;;;7.93;67.76;101086.81;10377722;28;20617;-64
2021/10/09 01:20:00;;;;;;;97.32;48.28;;;;;;;7.87;67.58;101087.00;10385502;28;20057;-64
2021/10/09 01:25:02;;;;;;;65.75;41.20;;;;;;;7.78;68.15;101081.19;10385067;28;20060;-64
2021/10/09 01:30:04;;;;;;;69.43;42.92;;;;;;;7.68;68.07;101079.75;10383331;28;20144;-63
2021/10/09 01:35:07;;;;;;;171.02;60.88;;;;;;;7.62;68.21;101073.00;10381911;28;20045;-64
2021/10/09 01:40:10;;;;;;;69.18;41.20;;;;;;;7.54;68.10;101076.72;10380219;28;20049;-64
2021/10/09 01:45:12;;;;;;;64.10;39.80;;;;;;;7.58;67.94;101075.72;10384404;28;20041;-64
2021/10/09 01:50:15;;;;;;;75.07;43.45;;;;;;;7.58;67.53;101065.31;10382110;28;20375;-64
2021/10/09 01:55:16;;;;;;;77.38;43.38;;;;;;;7.47;67.88;101072.59;10383386;28;20486;-64
2021/10/09 02:00:18;;;;;;;74.00;43.03;;;;;;;7.48;67.79;101069.94;10383366;28;20052;-65
2021/10/09 02:05:20;;;;;;;81.10;46.47;;;;;;;7.45;67.94;101070.03;10391218;28;20049;-63
2021/10/09 02:10:22;;;;;;;98.28;48.80;;;;;;;7.42;68.12;101067.53;10386418;28;20508;-64
2021/10/09 02:15:36;;;;;;;55.75;37.58;;;;;;;7.24;68.22;101068.06;10389147;28;20054;-64
2021/10/09 02:25:58;;;;;;;59.58;40.25;;;;;;;7.18;68.17;101070.81;10389350;28;20045;-64
2021/10/09 02:30:59;;;;;;;62.70;39.42;;;;;;;7.18;68.36;101074.25;10390208;28;20057;-64
2021/10/09 02:36:01;;;;;;;63.47;41.58;;;;;;;7.08;68.26;101071.97;10404466;28;20049;-64
2021/10/09 02:41:03;;;;;;;59.83;38.83;;;;;;;7.06;67.94;101072.00;10406250;28;20051;-64
2021/10/09 02:46:04;;;;;;;69.15;41.17;;;;;;;7.04;67.85;101072.97;10391291;28;20049;-64
2021/10/09 02:51:06;;;;;;;58.47;38.28;;;;;;;6.89;68.18;101071.63;10391517;28;20053;-63
2021/10/09 02:56:08;;;;;;;61.97;39.85;;;;;;;6.85;68.82;101070.00;10391683;28;20132;-63
2021/10/09 03:01:10;;;;;;;65.50;40.88;;;;;;;6.95;68.26;101070.59;10390799;28;20140;-63
2021/10/09 03:06:11;;;;;;;86.53;46.45;;;;;;;6.96;68.13;101064.47;10385790;28;20513;-64
2021/10/09 03:11:13;;;;;;;64.95;40.78;;;;;;;6.98;68.07;101067.88;10385249;28;20060;-63
2021/10/09 03:16:15;;;;;;;191.27;56.50;;;;;;;6.87;68.05;101069.94;10391021;28;20084;-63
2021/10/09 03:21:17;;;;;;;61.17;38.63;;;;;;;6.73;68.30;101080.72;10391128;28;20064;-63
2021/10/09 03:26:18;;;;;;;53.70;36.03;;;;;;;6.81;68.02;101076.16;10390737;28;20060;-63
2021/10/09 03:31:20;;;;;;;80.78;41.05;;;;;;;6.76;67.99;101082.34;10390591;28;20056;-64
2021/10/09 03:36:22;;;;;;;57.25;38.13;;;;;;;6.72;67.68;101080.72;10389774;28;20071;-63
2021/10/09 03:41:23;;;;;;;63.45;39.30;;;;;;;6.67;67.41;101080.88;10406938;28;20103;-64
2021/10/09 03:46:27;;;;;;;57.90;36.72;;;;;;;6.65;67.28;101084.41;10390280;28;20049;-64
2021/10/09 03:56:49;;;;;;;65.18;37.92;;;;;;;6.56;67.13;101076.81;10391393;28;20129;-63
2021/10/09 04:01:51;;;;;;;55.72;36.30;;;;;;;6.45;67.10;101081.44;10389515;28;20057;-63
2021/10/09 04:06:53;;;;;;;57.90;37.22;;;;;;;6.27;67.17;101073.19;10389905;28;20049;-63
2021/10/09 04:11:55;;;;;;;66.00;39.13;;;;;;;6.18;67.39;101081.19;10402505;28;20069;-64
2021/10/09 04:16:56;;;;;;;66.60;39.13;;;;;;;6.21;67.17;101077.63;10388715;28;20053;-64
2021/10/09 04:21:58;;;;;;;67.97;36.63;;;;;;;6.16;66.91;101076.91;10388098;28;20620;-63
2021/10/09 04:27:00;;;;;;;62.97;36.53;;;;;;;6.14;66.82;101070.91;10387997;28;20060;-63
2021/10/09 04:32:02;;;;;;;66.60;39.83;;;;;;;6.11;66.84;101077.00;10390109;28;20057;-63
2021/10/09 04:37:04;;;;;;;70.10;40.65;;;;;;;6.10;67.02;101075.28;10387837;28;20817;-63
2021/10/09 04:42:06;;;;;;;50.45;33.67;;;;;;;6.13;66.67;101075.22;10387800;28;20127;-63
2021/10/09 04:47:08;;;;;;;67.15;28.38;;;;;;;6.11;66.31;101069.22;10386563;28;20041;-63
2021/10/09 04:52:10;;;;;;;127.60;29.13;;;;;;;6.00;66.62;101070.38;10387300;28;20049;-64
2021/10/09 04:57:12;;;;;;;556.42;34.75;;;;;;;5.61;66.60;101073.84;10387140;28;20132;-63
2021/10/09 05:02:13;;;;;;;110.25;29.95;;;;;;;5.54;67.37;101073.97;10384766;28;20060;-64
2021/10/09 05:07:15;;;;;;;50.08;30.98;;;;;;;5.58;67.13;101079.94;10387636;28;20507;-64
2021/10/09 05:12:17;;;;;;;42.10;28.02;;;;;;;5.68;66.79;101081.44;10386937;28;20049;-64
2021/10/09 05:17:19;;;;;;;62.70;27.52;;;;;;;5.61;66.86;101079.03;10386105;28;20413;-64
2021/10/09 05:22:20;;;;;;;32.58;24.13;;;;;;;5.62;66.90;101084.19;10385869;28;20056;-64
2021/10/09 05:27:22;;;;;;;78.00;25.67;;;;;;;5.51;67.14;101088.75;10386764;28;20050;-64
2021/10/09 05:32:26;;;;;;;49.30;30.35;;;;;;;5.52;67.06;101095.63;10386453;28;20041;-64
2021/10/09 05:37:31;;;;;;;92.65;28.75;;;;;;;5.51;67.08;101094.78;10384752;28;20041;-64
2021/10/09 05:42:33;;;;;;;61.72;30.30;;;;;;;5.60;67.00;101104.13;10385603;28;20346;-64
2021/10/09 05:47:37;;;;;;;60.70;21.52;;;;;;;5.70;67.00;101110.81;10386608;28;20319;-64
2021/10/09 05:52:47;;;;;;;36.90;24.73;;;;;;;5.79;67.14;101120.16;10385560;28;20060;-64
2021/10/09 07:01:53;;;;;;;51.15;33.92;;;;;;;6.96;65.20;101168.50;10392415;28;20401;-64
2021/10/09 07:06:56;;;;;;;51.20;34.08;;;;;;;7.10;65.08;101169.88;10392179;28;20049;-64
2021/10/09 07:11:57;;;;;;;51.72;34.60;;;;;;;7.14;64.99;101178.47;10392171;28;20139;-64
2021/10/09 07:16:59;;;;;;;46.17;32.80;;;;;;;7.21;65.07;101180.00;10406480;28;20490;-64
2021/10/09 07:22:01;;;;;;;51.15;33.80;;;;;;;7.32;65.61;101185.78;10391241;28;20050;-64
2021/10/09 07:27:22;;;;;;;48.92;34.00;;;;;;;7.60;65.35;101185.88;10392045;28;20056;-64
2021/10/09 07:32:25;;;;;;;42.92;31.92;;;;;;;7.87;64.74;101188.59;10390500;28;20059;-63
2021/10/09 07:37:27;;;;;;;45.08;31.40;;;;;;;8.23;64.52;101191.00;10389476;28;20395;-64
2021/10/09 07:42:29;;;;;;;46.95;31.70;;;;;;;8.70;64.71;101187.78;10391188;28;20063;-64
2021/10/09 07:47:31;;;;;;;46.67;31.42;;;;;;;9.06;64.54;101194.41;10389634;28;20047;-64
2021/10/09 07:52:33;;;;;;;45.97;30.52;;;;;;;9.39;64.45;101190.66;10390833;28;20060;-64
2021/10/09 07:57:35;;;;;;;45.10;32.25;;;;;;;9.71;63.49;101191.31;10388490;28;20447;-64
2021/10/09 08:02:36;;;;;;;44.55;30.85;;;;;;;10.03;63.08;101197.06;10389013;28;20699;-64
2021/10/09 08:07:38;;;;;;;39.15;29.50;;;;;;;10.16;62.49;101194.81;10404610;28;20049;-64
2021/10/09 08:12:40;;;;;;;42.72;29.35;;;;;;;10.21;62.08;101190.25;10387247;28;20059;-64
2021/10/09 08:17:42;;;;;;;40.08;29.17;;;;;;;10.39;61.55;101190.41;10381847;28;20068;-73
2021/10/09 08:22:56;;;;;;;41.35;27.77;;;;;;;10.52;61.33;101186.38;10403909;28;20208;-73
2021/10/09 08:43:46;;;;;;;37.55;25.15;;;;;;;11.17;58.97;101193.34;10377265;28;20466;-74
2021/10/09 08:48:51;;;;;;;35.10;24.83;;;;;;;11.19;58.98;101186.28;10382294;28;20060;-74
2021/10/09 08:54:03;;;;;;;34.90;24.05;;;;;;;11.37;58.22;101184.63;10384053;28;20135;-75
2021/10/09 08:59:09;;;;;;;32.17;22.77;;;;;;;11.51;58.44;101177.88;10383147;28;20541;-75
2021/10/09 09:41:47;;;;;;;26.92;20.00;;;;;;;12.86;54.62;101148.78;10385859;28;20050;-77
2021/10/09 09:47:06;;;;;;;30.60;20.50;;;;;;;12.94;53.72;101142.19;10379204;28;20048;-79
2021/10/09 09:52:29;;;;;;;25.50;18.13;;;;;;;13.06;53.99;101139.91;10385247;28;20056;-79
2021/10/09 09:57:32;;;;;;;24.90;17.15;;;;;;;13.03;54.54;101140.06;10381347;28;20044;-78
2021/10/09 10:02:49;;;;;;;28.23;18.85;;;;;;;13.26;54.12;101129.22;10383492;28;20049;-79
2021/10/09 10:07:51;;;;;;;24.17;17.48;;;;;;;13.70;53.72;101131.22;10383464;28;20045;-78
2021/10/09 10:12:59;;;;;;;25.52;16.27;;;;;;;13.82;52.53;101132.34;10384935;28;20220;-78
2021/10/09 10:18:00;;;;;;;23.65;14.85;;;;;;;13.91;52.75;101123.09;10384851;28;20057;-78
2021/10/09 10:23:03;;;;;;;28.63;15.10;;;;;;;14.00;52.34;101126.09;10384935;28;20882;-79
2021/10/09 10:28:14;;;;;;;22.00;13.77;;;;;;;13.88;52.16;101132.00;10382974;28;20053;-79
2021/10/09 10:33:24;;;;;;;24.50;15.48;;;;;;;13.85;51.62;101120.81;10384363;28;20057;-79
2021/10/09 10:38:33;;;;;;;21.27;13.27;;;;;;;14.02;51.08;101112.84;10381623;28;20046;-78
2021/10/09 10:43:55;;;;;;;20.63;13.40;;;;;;;14.03;51.79;101110.13;10384285;28;20079;-79
2021/10/09 10:49:06;;;;;;;20.38;12.27;;;;;;;14.10;50.44;101108.88;10382453;28;20062;-79
2021/10/09 10:59:55;;;;;;;18.83;11.98;;;;;;;14.11;50.47;101102.66;10384577;28;20516;-78
2021/10/09 11:04:59;;;;;;;19.85;11.60;;;;;;;14.26;50.88;101095.69;10382757;28;20537;-77
2021/10/09 11:10:16;;;;;;;21.73;11.00;;;;;;;14.26;49.45;101087.81;10384001;28;20057;-77
2021/10/09 11:15:23;;;;;;;17.58;10.70;;;;;;;14.38;49.23;101084.47;10381017;28;20052;-77
2021/10/09 11:20:28;;;;;;;21.40;11.00;;;;;;;14.52;49.00;101090.69;10383391;28;20359;-78
2021/10/09 11:25:32;;;;;;;17.63;10.77;;;;;;;14.59;49.43;101084.09;10381693;28;20056;-76
2021/10/09 11:30:36;;;;;;;19.45;11.20;;;;;;;14.75;48.97;101075.31;10381408;28;20511;-76
2021/10/09 11:35:41;;;;;;;17.60;10.38;;;;;;;14.87;48.48;101064.06;10388094;28;20512;-76
2021/10/09 11:46:03;;;;;;;18.23;10.43;;;;;;;14.94;48.24;101066.22;10388700;28;20045;-76
2021/10/09 11:56:25;;;;;;;17.80;9.00;;;;;;;15.44;47.26;101068.44;10390227;28;20053;-76
2021/10/09 12:01:41;;;;;;;16.23;9.05;;;;;;;15.46;47.13;101047.25;10389194;28;20319;-76
2021/10/09 12:07:08;;;;;;;15.45;9.43;;;;;;;15.61;46.01;101055.09;10389422;28;20059;-76
2021/10/09 12:12:14;;;;;;;13.40;8.80;;;;;;;15.69;45.93;101049.34;10389429;28;20061;-73
2021/10/09 12:17:18;;;;;;;17.67;8.80;;;;;;;15.80;45.88;101047.69;10388203;28;20402;-75
2021/10/09 12:22:19;;;;;;;13.40;8.43;;;;;;;15.96;45.92;101045.78;10387648;28;20095;-76
2021/10/09 12:27:29;;;;;;;14.02;7.95;;;;;;;16.09;44.76;101036.13;10387474;28;20473;-75
2021/10/09 12:32:41;;;;;;;12.13;8.25;;;;;;;16.15;43.56;101024.31;10388225;28;20045;-76
2021/10/09 12:38:03;;;;;;;14.10;8.30;;;;;;;16.31;43.66;101021.50;10386646;28;20057;-76
2021/10/09 12:43:08;;;;;;;13.77;7.10;;;;;;;16.52;43.51;101020.13;10388874;28;20115;-76
2021/10/09 12:48:10;;;;;;;13.77;8.32;;;;;;;16.59;43.69;101009.03;10384778;28;20037;-75
2021/10/09 12:53:11;;;;;;;13.77;7.60;;;;;;;16.70;42.93;101001.22;10386848;28;20339;-75
2021/10/09 12:58:13;;;;;;;12.35;7.60;;;;;;;16.77;42.58;100997.19;10386148;28;20083;-75
2021/10/09 13:03:15;;;;;;;12.85;6.80;;;;;;;16.84;42.01;100992.34;10388362;28;20056;-75
2021/10/09 13:08:16;;;;;;;11.88;6.65;;;;;;;16.87;41.99;100987.69;10385015;28;20148;-75
2021/10/09 13:13:18;;;;;;;14.60;6.75;;;;;;;16.82;42.49;100989.81;10387463;28;20064;-76
2021/10/09 13:18:20;;;;;;;15.43;7.00;;;;;;;16.85;42.00;100988.78;10385678;28;20182;-75
2021/10/09 13:23:21;;;;;;;12.90;6.40;;;;;;;16.85;40.37;100978.19;10386333;28;20425;-76
2021/10/09 13:28:23;;;;;;;12.20;6.45;;;;;;;17.02;41.30;100975.22;10382225;28;20436;-76
2021/10/09 13:33:26;;;;;;;10.70;6.60;;;;;;;17.10;41.09;100978.16;10383528;28;20535;-75
2021/10/09 13:38:31;;;;;;;12.20;6.30;;;;;;;17.19;41.36;100974.88;10385415;28;20056;-76
2021/10/09 13:43:33;;;;;;;10.93;6.18;;;;;;;17.12;39.83;100970.97;10385530;28;20061;-75
2021/10/09 13:48:35;;;;;;;11.18;6.57;;;;;;;17.17;39.92;100974.16;10384139;28;20049;-76
2021/10/09 13:53:36;;;;;;;10.35;6.70;;;;;;;17.23;39.89;100967.56;10384272;28;20054;-75
2021/10/09 13:58:39;;;;;;;10.55;6.35;;;;;;;17.31;40.06;100962.59;10384241;28;20057;-75
2021/10/09 14:03:45;;;;;;;9.52;6.00;;;;;;;17.31;39.23;100960.78;10383851;28;20041;-75
2021/10/09 14:08:48;;;;;;;12.32;6.00;;;;;;;17.31;39.92;100957.28;10385138;28;20076;-76
2021/10/09 14:13:49;;;;;;;11.38;6.05;;;;;;;17.27;39.07;100954.03;10384162;28;20053;-76
2021/10/09 14:18:56;;;;;;;14.40;6.70;;;;;;;17.18;39.69;100953.84;10386176;28;20056;-75
2021/10/09 14:23:58;;;;;;;11.73;6.93;;;;;;;17.30;39.95;100953.81;10382681;28;20056;-75
2021/10/09 14:28:59;;;;;;;12.90;6.20;;;;;;;17.14;39.88;100950.56;10380549;28;20045;-76
2021/10/09 14:34:04;;;;;;;10.45;6.25;;;;;;;17.18;39.76;100948.56;10382731;28;20057;-75
2021/10/09 14:39:05;;;;;;;12.77;6.15;;;;;;;17.22;40.01;100942.94;10383081;28;20073;-75
2021/10/09 14:44:07;;;;;;;10.27;6.22;;;;;;;17.25;39.74;100945.38;10398703;28;20053;-76
2021/10/09 14:49:13;;;;;;;11.32;6.13;;;;;;;17.10;40.10;100941.16;10383098;28;20050;-75
2021/10/09 15:20:54;;;;;;;13.32;6.80;;;;;;;16.54;40.91;100942.47;10391562;28;20049;-76
2021/10/09 15:25:56;;;;;;;10.27;6.00;;;;;;;16.52;41.47;100930.31;10390262;28;20055;-76
2021/10/09 15:30:57;;;;;;;16.95;6.60;;;;;;;16.45;41.82;100935.19;10389581;28;20075;-75
2021/10/09 15:35:59;;;;;;;15.30;6.60;;;;;;;16.47;41.63;100945.66;10390875;28;20054;-77
2021/10/09 15:41:01;;;;;;;11.93;6.13;;;;;;;16.41;41.60;100935.44;10390734;28;20091;-77
2021/10/09 15:46:03;;;;;;;12.13;6.32;;;;;;;16.33;41.77;100940.41;10388796;28;20049;-77
2021/10/09 15:51:05;;;;;;;12.65;6.93;;;;;;;16.17;42.05;100936.19;10391351;28;20056;-77
2021/10/09 15:56:07;;;;;;;9.70;6.03;;;;;;;16.02;42.21;100939.81;10389920;28;20055;-76
2021/10/09 16:01:08;;;;;;;12.57;6.88;;;;;;;15.85;43.06;100936.63;10388434;28;20301;-77
2021/10/09 16:06:10;;;;;;;12.20;6.55;;;;;;;15.58;43.40;100947.16;10385002;28;20060;-76
2021/10/09 16:11:12;;;;;;;12.88;6.63;;;;;;;15.51;43.98;100948.50;10385350;28;20049;-76
2021/10/09 16:16:15;;;;;;;10.05;6.65;;;;;;;15.28;44.75;100947.31;10386952;28;20065;-76
2021/10/09 16:21:17;;;;;;;16.95;6.80;;;;;;;15.09;44.88;100953.81;10381733;28;20050;-76
2021/10/09 16:26:18;;;;;;;12.80;6.95;;;;;;;14.89;45.90;100960.31;10385325;28;20063;-76
2021/10/09 16:31:23;;;;;;;12.13;6.63;;;;;;;14.65;46.30;100955.69;10383065;28;20058;-77
2021/10/09 16:36:25;;;;;;;14.02;7.60;;;;;;;14.40;46.80;100958.91;10386613;28;20131;-77
2021/10/09 16:41:27;;;;;;;12.50;7.50;;;;;;;14.22;47.12;100960.84;10385777;28;20409;-77
2021/10/09 16:46:28;;;;;;;10.73;7.00;;;;;;;13.95;48.15;100961.56;10386875;28;20367;-76
2021/10/09 16:51:32;;;;;;;15.00;7.30;;;;;;;13.70;49.12;100970.00;10386673;28;20061;-77
2021/10/09 16:56:35;;;;;;;15.93;7.82;;;;;;;13.41;49.42;100970.75;10385168;28;20551;-76
2021/10/09 17:01:37;;;;;;;13.80;7.20;;;;;;;13.28;50.63;100977.59;10382118;28;20068;-76
2021/10/09 17:06:38;;;;;;;9.98;7.38;;;;;;;13.09;51.18;100972.50;10386311;28;20049;-76
2021/10/09 17:11:40;;;;;;;14.63;8.02;;;;;;;12.91;51.28;100979.56;10382293;28;20152;-76
2021/10/09 17:16:42;;;;;;;12.68;7.82;;;;;;;12.79;52.07;100992.50;10384532;28;20053;-76
2021/10/09 17:21:50;;;;;;;11.82;7.78;;;;;;;12.64;51.98;100999.38;10383291;28;20045;-76
2021/10/09 17:26:52;;;;;;;15.60;8.40;;;;;;;12.51;52.34;101003.56;10383984;28;20041;-75
2021/10/09 17:31:53;;;;;;;11.10;7.90;;;;;;;12.46;52.43;101007.34;10385197;28;20059;-76
2021/10/09 17:36:55;;;;;;;16.52;8.85;;;;;;;12.37;52.81;101003.44;10384874;28;20553;-77
2021/10/09 17:41:57;;;;;;;14.73;9.00;;;;;;;12.24;52.98;101018.03;10384060;28;20422;-77
2021/10/09 17:46:58;;;;;;;17.08;9.30;;;;;;;12.14;53.50;101020.25;10385381;28;20813;-77
2021/10/09 17:52:00;;;;;;;13.13;9.00;;;;;;;11.95;54.29;101015.97;10384536;28;20320;-76
2021/10/09 17:57:02;;;;;;;20.70;10.63;;;;;;;11.89;54.43;101027.59;10384813;28;20042;-76
2021/10/09 18:02:05;;;;;;;17.88;10.48;;;;;;;11.66;54.65;101027.00;10384772;28;20051;-76
2021/10/09 18:07:11;;;;;;;15.43;9.73;;;;;;;11.52;55.55;101026.81;10382512;28;20046;-75
2021/10/09 18:12:13;;;;;;;16.27;9.98;;;;;;;11.51;55.07;101032.94;10384565;28;20063;-76
2021/10/09 18:17:14;;;;;;;16.60;9.70;;;;;;;11.39;55.63;101026.50;10378515;28;20051;-76
2021/10/09 18:22:16;;;;;;;14.65;9.98;;;;;;;11.35;55.84;101029.31;10378213;28;20052;-77
2021/10/09 18:27:18;;;;;;;18.05;11.70;;;;;;;11.22;56.64;101027.25;10381198;28;20059;-75
2021/10/09 18:32:20;;;;;;;17.23;11.00;;;;;;;11.13;56.90;101025.03;10383402;28;20057;-75
2021/10/09 18:37:22;;;;;;;15.00;10.20;;;;;;;11.01;57.14;101025.56;10383958;28;20059;-77
2021/10/09 18:42:24;;;;;;;16.92;10.88;;;;;;;10.84;57.86;101029.84;10385362;28;20484;-75
2021/10/09 18:47:26;;;;;;;17.23;10.80;;;;;;;10.76;58.25;101045.03;10389691;28;20046;-75
2021/10/09 18:52:28;;;;;;;16.15;10.23;;;;;;;10.62;58.82;101039.53;10388311;28;20394;-76
2021/10/09 18:57:30;;;;;;;15.32;10.45;;;;;;;10.44;59.32;101046.38;10389720;28;20044;-76
2021/10/09 19:02:31;;;;;;;17.33;11.60;;;;;;;10.23;59.19;101047.25;10390904;28;20053;-75
2021/10/09 19:07:34;;;;;;;18.27;11.73;;;;;;;10.09;59.91;101042.59;10389806;28;20050;-75
2021/10/09 19:12:36;;;;;;;15.27;11.20;;;;;;;10.10;60.12;101046.03;10389893;28;20060;-75
2021/10/09 19:17:39;;;;;;;16.70;11.57;;;;;;;10.05;60.27;101041.03;10387867;28;20839;-75
2021/10/09 19:22:42;;;;;;;19.75;12.45;;;;;;;9.83;60.46;101058.44;10391407;28;20055;-76
2021/10/09 19:27:45;;;;;;;18.63;12.02;;;;;;;9.75;60.44;101057.06;10385933;28;20051;-75
2021/10/09 19:32:47;;;;;;;18.90;12.43;;;;;;;9.67;60.53;101057.31;10389522;28;20053;-74
2021/10/09 19:37:50;;;;;;;19.08;11.60;;;;;;;9.49;60.81;101065.81;10386983;28;21169;-74
2021/10/09 19:42:51;;;;;;;18.13;12.45;;;;;;;9.27;61.09;101070.13;10386201;28;20789;-74
2021/10/09 19:48:01;;;;;;;17.83;13.18;;;;;;;9.23;61.59;101074.63;10389131;28;20063;-74
2021/10/09 19:53:16;;;;;;;17.70;13.45;;;;;;;9.21;61.85;101079.03;10388231;28;20046;-74
2021/10/09 19:58:19;;;;;;;20.35;13.95;;;;;;;9.21;61.82;101076.44;10389232;28;20575;-74
2021/10/09 20:03:20;;;;;;;18.27;14.35;;;;;;;9.22;61.78;101088.56;10386896;28;20060;-74
2021/10/09 20:08:22;;;;;;;22.08;14.57;;;;;;;9.19;61.91;101093.91;10388640;28;20405;-74
2021/10/09 20:13:24;;;;;;;21.10;14.55;;;;;;;9.05;61.81;101096.16;10386082;28;20061;-74
2021/10/09 20:18:26;;;;;;;18.50;14.20;;;;;;;9.04;62.11;101094.44;10388200;28;20129;-73
2021/10/09 20:23:29;;;;;;;19.58;14.45;;;;;;;9.00;62.36;101097.19;10388595;28;20650;-73
2021/10/09 20:28:31;;;;;;;19.92;13.98;;;;;;;8.97;62.21;101103.41;10380760;28;20136;-74
2021/10/09 20:33:32;;;;;;;17.55;11.80;;;;;;;8.82;62.85;101099.56;10382358;28;20072;-74
2021/10/09 20:38:34;;;;;;;16.58;12.82;;;;;;;8.62;62.72;101103.72;10387036;28;20515;-73
2021/10/09 20:43:36;;;;;;;17.27;12.52;;;;;;;8.49;63.50;101107.63;10386200;28;20312;-73
2021/10/09 20:48:38;;;;;;;21.35;13.98;;;;;;;8.60;63.46;101113.38;10383899;28;20053;-74
2021/10/09 20:53:39;;;;;;;21.48;14.18;;;;;;;8.64;63.39;101102.78;10389034;28;20449;-74
2021/10/09 20:58:41;;;;;;;22.00;15.23;;;;;;;8.63;63.27;101115.84;10387342;28;20052;-73
2021/10/09 21:03:43;;;;;;;22.42;14.55;;;;;;;8.60;62.95;101108.16;10387624;28;20573;-73
2021/10/09 21:08:44;;;;;;;22.45;15.13;;;;;;;8.53;63.02;101114.44;10386755;28;20049;-73
2021/10/09 21:24:11;;;;;;;25.70;17.07;;;;;;;8.35;63.79;101120.25;10386332;28;20045;-72
2021/10/09 21:29:13;;;;;;;27.67;18.80;;;;;;;8.29;63.75;101107.41;10385895;28;20049;-74
2021/10/09 21:34:16;;;;;;;23.52;15.95;;;;;;;8.19;63.62;101122.50;10386454;28;20382;-73
2021/10/09 21:39:18;;;;;;;21.00;14.38;;;;;;;8.14;63.72;101123.56;10386487;28;20053;-73
2021/10/09 21:44:20;;;;;;;25.48;15.32;;;;;;;8.14;63.30;101123.56;10385441;28;20052;-73
2021/10/09 21:49:22;;;;;;;24.75;16.00;;;;;;;8.10;63.44;101119.31;10385204;28;20049;-66
2021/10/09 21:54:24;;;;;;;19.85;13.90;;;;;;;8.00;63.57;101110.91;10384602;28;20227;-66
2021/10/09 21:59:38;;;;;;;19.38;13.77;;;;;;;8.02;63.36;101106.50;10384935;28;20428;-66
2021/10/09 22:36:42;;;;;;;19.05;13.85;;;;;;;7.77;63.03;101103.78;10383558;28;20573;-66
2021/10/09 22:41:43;;;;;;;19.50;13.02;;;;;;;7.69;63.59;101100.53;10383823;28;20223;-66
2021/10/09 22:46:45;;;;;;;20.95;13.18;;;;;;;7.47;63.37;101094.25;10384286;28;20512;-66
2021/10/09 22:51:47;;;;;;;22.92;14.57;;;;;;;7.44;63.64;101091.75;10383473;28;20045;-66
2021/10/09 22:56:48;;;;;;;20.35;13.82;;;;;;;7.51;63.49;101088.06;10383681;28;20132;-66
2021/10/09 23:01:51;;;;;;;23.02;15.80;;;;;;;7.39;63.54;101085.81;10383576;28;20055;-66
2021/10/09 23:06:53;;;;;;;28.42;17.30;;;;;;;7.39;63.56;101091.03;10383197;28;20050;-66
2021/10/09 23:11:55;;;;;;;37.63;25.13;;;;;;;7.33;63.70;101086.00;10382673;28;20061;-67
2021/10/09 23:16:57;;;;;;;21.05;13.63;;;;;;;7.20;62.94;101079.44;10383471;28;20045;-67
2021/10/09 23:21:59;;;;;;;23.35;15.32;;;;;;;6.93;63.69;101088.84;10381535;28;20947;-67
2021/10/09 23:27:01;;;;;;;26.85;17.52;;;;;;;7.07;63.74;101083.25;10383065;28;20060;-67
2021/10/09 23:32:03;;;;;;;38.50;23.83;;;;;;;6.94;63.75;101081.88;10389984;28;20053;-67
2021/10/09 23:37:05;;;;;;;23.92;14.95;;;;;;;6.95;63.79;101078.38;10390865;28;20057;-66
2021/10/09 23:42:07;;;;;;;18.80;13.70;;;;;;;6.97;63.63;101082.66;10390046;28;20053;-66
2021/10/09 23:47:09;;;;;;;19.77;13.32;;;;;;;6.95;63.71;101084.44;10390332;28;20060;-67
2021/10/09 23:52:10;;;;;;;20.27;14.90;;;;;;;6.82;64.03;101084.78;10390321;28;20081;-67
2021/10/09 23:57:13;;;;;;;21.42;13.50;;;;;;;6.79;63.98;101082.28;10388914;28;20737;-66
